Terminal Aerodrome Forecast
Issued by NWS

Home | Current Version | Previous Version | Text Only | Print | Product List | Glossary On
Versions: 1 2 3 4 5 6 7 8 9 10 11 12 13 14
000
FTUS46 KSEW 220500
TAFBFI
TAF
KBFI 220520Z 2206/2306 16005KT P6SM SCT020 OVC140
      TEMPO 2206/2209 BKN020 OVC140
     FM220900 15004KT P6SM OVC020
     FM222000 15005KT P6SM BKN045 BKN100
     FM222300 VRB03KT P6SM SCT050 BKN100=

USA.gov is the U.S. government's official web portal to all federal, state and local government web resources and services.